createdAt,value
2023-01-19T00:00:11.281Z,22
2023-01-19T00:02:13.181Z,18.1
2023-01-19T00:04:15.064Z,20.4
2023-01-19T00:06:20.284Z,16.7
2023-01-19T00:08:22.146Z,17
2023-01-19T00:10:24.013Z,20.8
2023-01-19T00:12:25.905Z,20
2023-01-19T00:14:27.821Z,20.4
2023-01-19T00:16:29.750Z,20.2
2023-01-19T00:18:31.587Z,21.2
2023-01-19T00:20:36.735Z,15.9
2023-01-19T00:22:38.640Z,18.4
2023-01-19T00:24:40.532Z,22.4
2023-01-19T00:26:42.423Z,24.2
2023-01-19T00:36:55.099Z,29.5
2023-01-19T00:38:56.969Z,24.3
2023-01-19T00:40:58.847Z,30.2
2023-01-19T00:43:01.311Z,31
2023-01-19T00:45:02.668Z,25.7
2023-01-19T00:47:04.505Z,28.2
2023-01-19T00:49:09.625Z,30.2
2023-01-19T00:51:11.500Z,43
2023-01-19T00:53:13.382Z,29.2
2023-01-19T00:54:15.949Z,33.6
2023-01-19T00:56:17.861Z,39.2
2023-01-19T00:58:19.788Z,30.3
2023-01-19T01:00:21.649Z,29
2023-01-19T01:06:30.511Z,25.6
2023-01-19T01:08:32.403Z,33.8
2023-01-19T01:14:39.559Z,38
2023-01-19T01:22:50.286Z,44.9
2023-01-19T01:24:52.188Z,51.3
2023-01-19T01:26:54.057Z,47.6
2023-01-19T01:28:55.934Z,51.6
2023-01-19T01:35:04.826Z,53.8
2023-01-19T01:37:06.709Z,37.8
2023-01-19T01:39:08.610Z,50.2
2023-01-19T01:41:10.499Z,42.8
2023-01-19T01:43:12.383Z,43.8
2023-01-19T01:45:17.500Z,41.9
2023-01-19T01:47:19.360Z,50.2
2023-01-19T01:49:21.259Z,53.2
2023-01-19T01:50:23.826Z,57.3
2023-01-19T01:52:25.706Z,48.3
2023-01-19T01:54:27.625Z,52.5
2023-01-19T01:56:29.522Z,48.8
2023-01-19T01:58:34.640Z,61.1
2023-01-19T02:00:36.537Z,40.5
2023-01-19T02:04:40.340Z,44.3
2023-01-19T02:06:42.218Z,47.8
2023-01-19T02:10:45.998Z,45.2
2023-01-19T02:12:51.162Z,42.4
2023-01-19T02:14:53.075Z,34.7
2023-01-19T02:16:55.093Z,27.9
2023-01-19T02:18:56.871Z,35.6
2023-01-19T02:20:58.769Z,21.8
2023-01-19T02:23:01.006Z,28
2023-01-19T02:25:02.544Z,30
2023-01-19T02:27:07.672Z,26.5
2023-01-19T02:29:09.582Z,21.8
2023-01-19T02:31:11.470Z,16.1
2023-01-19T02:33:13.391Z,18.1
2023-01-19T02:35:15.237Z,17.2
2023-01-19T02:37:17.148Z,16.3
2023-01-19T02:39:19.023Z,13.4
2023-01-19T02:41:24.137Z,19
2023-01-19T02:43:26.040Z,14.8
2023-01-19T02:45:27.914Z,13.9
2023-01-19T02:46:30.452Z,11.2
2023-01-19T02:48:32.339Z,11
2023-01-19T02:50:34.235Z,13.8
2023-01-19T02:52:36.101Z,15.8
2023-01-19T02:54:41.218Z,18.3
2023-01-19T02:56:43.121Z,11.9
2023-01-19T02:58:45.011Z,12.6
2023-01-19T03:00:46.846Z,13.6
2023-01-19T03:02:48.850Z,14.4
2023-01-19T03:04:50.595Z,16.4
2023-01-19T03:06:52.503Z,13.9
2023-01-19T03:08:57.630Z,9.5
2023-01-19T03:13:01.732Z,14.5
2023-01-19T03:17:05.152Z,13.6
2023-01-19T03:21:08.871Z,10.9
2023-01-19T03:23:14.005Z,11
2023-01-19T03:25:15.873Z,14
2023-01-19T03:27:17.757Z,15.5
2023-01-19T03:29:19.635Z,14.9
2023-01-19T03:31:21.553Z,15.3
2023-01-19T03:37:30.379Z,12.9
2023-01-19T03:39:32.268Z,9.1
2023-01-19T03:41:34.153Z,12
2023-01-19T03:44:02.925Z,13
2023-01-19T03:46:04.805Z,9.6
2023-01-19T03:48:06.711Z,13.2
2023-01-19T03:50:11.804Z,12.8
2023-01-19T03:52:13.703Z,11.5
2023-01-19T03:54:15.565Z,10.6
2023-01-19T03:56:17.445Z,11.5
2023-01-19T03:58:19.321Z,12.7
2023-01-19T04:00:21.220Z,18
2023-01-19T04:02:23.104Z,13.5
2023-01-19T04:04:28.199Z,11.6
2023-01-19T04:06:30.156Z,12.1
2023-01-19T04:08:32.001Z,14.9
2023-01-19T04:10:33.893Z,14.6
2023-01-19T04:12:35.799Z,7.5
2023-01-19T04:14:37.668Z,11.2
2023-01-19T04:16:39.586Z,10.1
2023-01-19T04:20:46.621Z,13.3
2023-01-19T04:24:50.398Z,21.6
2023-01-19T04:26:52.309Z,7.9
2023-01-19T04:28:54.201Z,5.6
2023-01-19T04:33:01.656Z,14.5
2023-01-19T04:35:03.150Z,14.7
2023-01-19T04:37:05.080Z,8.7
2023-01-19T04:38:07.631Z,13.1
2023-01-19T04:40:09.528Z,10
2023-01-19T04:42:11.437Z,10.6
2023-01-19T04:44:13.310Z,18.3
2023-01-19T04:46:18.473Z,7.6
2023-01-19T04:48:20.360Z,4.4
2023-01-19T04:50:22.276Z,3.2
2023-01-19T04:52:24.158Z,15.8
2023-01-19T04:54:26.120Z,12.5
2023-01-19T04:56:27.987Z,6.7
2023-01-19T04:58:29.898Z,25.6
2023-01-19T05:00:35.070Z,10.6
2023-01-19T05:02:36.969Z,12.3
2023-01-19T05:04:38.895Z,4.8
2023-01-19T05:06:40.827Z,3
2023-01-19T05:08:45.257Z,7.4
2023-01-19T05:12:46.549Z,7
2023-01-19T05:14:51.716Z,3.2
2023-01-19T05:18:55.541Z,7.4
2023-01-19T05:20:57.491Z,10.6
2023-01-19T05:22:59.678Z,8.4
2023-01-19T05:25:01.232Z,7.5
2023-01-19T05:27:03.176Z,11.4
2023-01-19T05:31:10.399Z,8.6
2023-01-19T05:33:12.209Z,7.5
2023-01-19T05:40:20.522Z,4.6
2023-01-19T05:42:25.670Z,12.8
2023-01-19T05:44:27.617Z,11.3
2023-01-19T05:46:29.556Z,3.9
2023-01-19T05:48:31.469Z,7.1
2023-01-19T05:50:33.355Z,9.2
2023-01-19T05:52:35.280Z,14.8
2023-01-19T05:54:37.176Z,13
2023-01-19T05:56:42.387Z,14.3
2023-01-19T05:58:44.285Z,9
2023-01-19T06:00:46.265Z,10.3
2023-01-19T06:02:48.221Z,7.4
2023-01-19T06:04:50.107Z,10.9
2023-01-19T06:06:51.956Z,22.5
2023-01-19T06:08:53.915Z,12.4
2023-01-19T06:10:59.061Z,4
2023-01-19T06:13:01.245Z,12.9
2023-01-19T06:15:02.894Z,16.9
2023-01-19T06:17:04.810Z,12
2023-01-19T06:19:06.726Z,17.2
2023-01-19T06:23:10.595Z,12.5
2023-01-19T06:25:15.736Z,11.2
2023-01-19T06:27:17.601Z,15.4
2023-01-19T06:29:19.545Z,9.7
2023-01-19T06:34:25.915Z,19.1
2023-01-19T06:36:27.812Z,16.6
2023-01-19T06:42:36.804Z,8.9
2023-01-19T06:44:38.711Z,17.8
2023-01-19T06:46:40.649Z,14.8
2023-01-19T06:48:42.550Z,17.7
2023-01-19T06:50:44.474Z,16.5
2023-01-19T06:52:49.623Z,13.9
2023-01-19T06:54:51.553Z,17.2
2023-01-19T06:58:55.362Z,28.5
2023-01-19T07:07:07.749Z,10.6
2023-01-19T07:15:15.409Z,31.2
2023-01-19T07:17:17.313Z,11.5
2023-01-19T07:23:26.310Z,20.2
2023-01-19T07:25:28.209Z,24.1
2023-01-19T07:27:56.981Z,24
2023-01-19T07:29:58.893Z,12.1
2023-01-19T07:32:00.809Z,26.7
2023-01-19T07:34:05.987Z,28.1
2023-01-19T07:36:07.901Z,11.7
2023-01-19T07:38:09.809Z,36.1
2023-01-19T07:40:11.715Z,9.9
2023-01-19T07:42:13.669Z,26.1
2023-01-19T07:44:15.587Z,25.3
2023-01-19T07:46:17.513Z,13.9
2023-01-19T07:50:24.530Z,37.1
2023-01-19T07:52:26.454Z,9.9
2023-01-19T07:54:28.382Z,20.1
2023-01-19T07:56:32.186Z,15.7
2023-01-19T08:02:39.264Z,25.5
2023-01-19T08:08:44.972Z,32.2
2023-01-19T08:10:46.886Z,12.9
2023-01-19T08:12:48.816Z,54.2
2023-01-19T08:14:50.723Z,27.7
2023-01-19T08:16:55.904Z,37.6
2023-01-19T08:18:57.817Z,30.9
2023-01-19T08:20:59.752Z,18.8
2023-01-19T08:26:06.138Z,20.6
2023-01-19T08:28:08.065Z,13.3
2023-01-19T08:30:13.197Z,19
2023-01-19T08:32:15.252Z,22.7
2023-01-19T08:34:17.074Z,28.1
2023-01-19T08:36:19.008Z,22.6
2023-01-19T08:38:20.928Z,22.4
2023-01-19T08:42:24.754Z,31.9
2023-01-19T08:50:35.740Z,19.2
2023-01-19T08:52:37.627Z,22.7
2023-01-19T08:58:51.293Z,11.7
2023-01-19T09:00:48.638Z,20.3
2023-01-19T09:08:56.291Z,15.5
2023-01-19T09:15:05.302Z,25.2
2023-01-19T09:17:07.237Z,22.5
2023-01-19T09:18:09.775Z,27.7
2023-01-19T09:20:11.743Z,18.4
2023-01-19T09:22:13.628Z,29.3
2023-01-19T09:24:15.570Z,22.1
2023-01-19T09:26:20.732Z,31.5
2023-01-19T09:28:22.647Z,18
2023-01-19T09:30:24.665Z,23.6
2023-01-19T09:32:26.516Z,16.9
2023-01-19T09:34:28.455Z,26.1
2023-01-19T09:40:37.455Z,35.9
2023-01-19T09:48:45.215Z,25.5
2023-01-19T09:50:47.129Z,11.1
2023-01-19T09:54:54.315Z,11.4
2023-01-19T09:56:56.267Z,20.3
2023-01-19T09:58:58.265Z,18.5
2023-01-19T10:03:02.628Z,18.7
2023-01-19T10:05:04.150Z,37.3
2023-01-19T10:07:06.113Z,14.5
2023-01-19T10:14:17.830Z,14
2023-01-19T10:16:19.891Z,44.7
2023-01-19T10:18:21.793Z,30
2023-01-19T10:22:29.021Z,38.3
2023-01-19T10:24:30.931Z,18.2
2023-01-19T10:32:38.947Z,33
2023-01-19T10:38:48.079Z,14
2023-01-19T10:40:50.058Z,23
2023-01-19T10:48:57.924Z,10
2023-01-19T10:53:05.561Z,7.8
2023-01-19T10:55:07.207Z,29.7
2023-01-19T10:57:09.137Z,29.7
2023-01-19T10:59:11.145Z,32.4
2023-01-19T11:03:15.197Z,12.9
2023-01-19T11:05:20.385Z,16
2023-01-19T11:07:22.374Z,8.3
2023-01-19T11:09:24.403Z,12
2023-01-19T11:11:53.173Z,8.5
2023-01-19T11:13:55.183Z,26.8
2023-01-19T11:15:57.185Z,25.5
2023-01-19T11:18:02.461Z,13.7
2023-01-19T11:20:04.482Z,8.1
2023-01-19T11:22:06.504Z,25.1
2023-01-19T11:24:08.511Z,16.3
2023-01-19T11:26:10.526Z,11.4
2023-01-19T11:30:14.587Z,18.7
2023-01-19T11:32:19.836Z,22.4
2023-01-19T11:34:21.896Z,16.3
2023-01-19T11:36:23.880Z,31.3
2023-01-19T11:40:27.936Z,11.2
2023-01-19T11:42:29.954Z,27.4
2023-01-19T11:44:32.031Z,20.5
2023-01-19T11:46:37.319Z,15.7
2023-01-19T11:48:39.354Z,13
2023-01-19T11:50:41.385Z,6.8
2023-01-19T11:52:43.391Z,15
2023-01-19T11:54:45.453Z,8.8
2023-01-19T11:56:47.440Z,14.4
2023-01-19T11:58:49.491Z,13.6
2023-01-19T12:04:58.835Z,46.3
2023-01-19T12:08:05.620Z,6.2
2023-01-19T12:10:05.527Z,5.7
2023-01-19T12:12:07.579Z,10.3
2023-01-19T12:14:12.868Z,16.9
2023-01-19T12:20:19.032Z,13.5
2023-01-19T12:36:38.575Z,6.9
2023-01-19T12:42:47.977Z,9.5
2023-01-19T12:44:50.008Z,5.7
2023-01-19T12:52:58.254Z,0.6
2023-01-19T13:02:14.005Z,5.1
2023-01-19T13:06:18.019Z,7.5
2023-01-19T13:08:20.033Z,18.4
2023-01-19T13:10:25.309Z,8.6
2023-01-19T13:12:27.378Z,9
2023-01-19T13:14:29.423Z,11.9
2023-01-19T13:16:31.455Z,14.8
2023-01-19T13:30:49.064Z,18.8
2023-01-19T13:34:53.047Z,14
2023-01-19T13:36:55.088Z,10.7
2023-01-19T13:39:00.328Z,8.2
2023-01-19T13:41:02.383Z,24.5
2023-01-19T13:43:04.419Z,7.1
2023-01-19T13:45:06.456Z,15.6
2023-01-19T13:47:08.486Z,10
2023-01-19T13:49:10.532Z,2.2
2023-01-19T13:51:12.560Z,3.8
2023-01-19T13:53:17.902Z,7.3
2023-01-19T13:55:19.909Z,9.7
2023-01-19T13:57:21.912Z,8
2023-01-19T13:58:24.574Z,15.8
2023-01-19T14:02:28.810Z,10
2023-01-19T14:04:30.688Z,4.7
2023-01-19T14:06:35.994Z,5.8
2023-01-19T14:08:38.038Z,10.7
2023-01-19T14:10:40.057Z,18.9
2023-01-19T14:12:58.198Z,15.7
2023-01-19T14:14:44.131Z,4.3
2023-01-19T14:16:46.184Z,5.1
2023-01-19T14:18:48.202Z,5.4
2023-01-19T14:20:53.495Z,13.1
2023-01-19T14:26:59.629Z,1.5
2023-01-19T14:29:01.647Z,9.8
2023-01-19T14:31:03.881Z,9.5
2023-01-19T14:33:05.734Z,5.2
2023-01-19T14:35:11.178Z,4.9
2023-01-19T14:43:19.226Z,3.6
2023-01-19T14:45:21.356Z,3.3
2023-01-19T14:47:23.335Z,8.3
2023-01-19T14:49:28.674Z,13.6
2023-01-19T14:51:30.691Z,5.5
2023-01-19T14:56:01.564Z,6
2023-01-19T14:58:03.567Z,5.3
2023-01-19T15:00:05.645Z,1.8
2023-01-19T15:02:11.007Z,1.9
2023-01-19T15:04:12.933Z,8.3
2023-01-19T15:10:19.027Z,1.9
2023-01-19T15:16:28.427Z,6
2023-01-19T15:18:30.416Z,4.2
2023-01-19T15:22:34.447Z,7.5
2023-01-19T15:26:38.490Z,15.7
2023-01-19T15:28:40.504Z,20.9
2023-01-19T15:30:45.807Z,4.6
2023-01-19T15:32:47.778Z,9.6
2023-01-19T15:34:49.817Z,2.1
2023-01-19T15:36:51.842Z,3.7
2023-01-19T15:38:53.799Z,6.5
2023-01-19T15:40:55.871Z,12.7
2023-01-19T15:42:57.844Z,5.8
2023-01-19T15:45:03.114Z,5.4
2023-01-19T15:47:05.109Z,4.6
2023-01-19T15:49:07.108Z,7.8
2023-01-19T15:52:11.733Z,11.8
2023-01-19T15:54:13.725Z,10.8
2023-01-19T15:58:20.962Z,5.2
2023-01-19T16:00:22.906Z,6.6
2023-01-19T16:02:25.019Z,16.6
2023-01-19T16:04:26.949Z,5.2
2023-01-19T16:06:28.922Z,4.9
2023-01-19T16:08:30.902Z,8.4
2023-01-19T16:10:32.846Z,7.8
2023-01-19T16:12:38.058Z,15.5
2023-01-19T16:14:40.731Z,8.4
2023-01-19T16:16:42.767Z,6.1
2023-01-19T16:22:48.591Z,9.8
2023-01-19T16:28:57.726Z,13.4
2023-01-19T16:30:59.676Z,8.2
2023-01-19T16:33:01.645Z,11.8
2023-01-19T16:35:03.581Z,9.6
2023-01-19T16:37:05.583Z,19.2
2023-01-19T16:39:07.486Z,13.5
2023-01-19T16:41:12.672Z,14.4
2023-01-19T16:43:14.627Z,14.8
2023-01-19T16:45:16.599Z,12.7
2023-01-19T16:46:19.190Z,10.3
2023-01-19T16:48:21.983Z,16.8
2023-01-19T16:52:25.884Z,41
2023-01-19T16:54:31.070Z,37.3
2023-01-19T16:56:33.047Z,33.9
2023-01-19T16:58:34.957Z,38.1
2023-01-19T17:00:36.930Z,43.9
2023-01-19T17:02:38.941Z,51
2023-01-19T17:04:40.798Z,72.6
2023-01-19T17:06:42.741Z,45.9
2023-01-19T17:08:47.923Z,49.5
2023-01-19T17:10:49.868Z,36.8
2023-01-19T17:12:51.790Z,37.7
2023-01-19T17:14:53.710Z,12.3
2023-01-19T17:16:55.733Z,13.4
2023-01-19T17:18:57.573Z,9.6
2023-01-19T17:20:59.520Z,15.4
2023-01-19T17:23:04.671Z,19.9
2023-01-19T17:25:06.620Z,17.7
2023-01-19T17:27:08.559Z,14.1
2023-01-19T17:29:10.473Z,8.4
2023-01-19T17:31:12.511Z,16.9
2023-01-19T17:33:14.305Z,21.3
2023-01-19T17:35:16.203Z,16.3
2023-01-19T17:37:21.418Z,33.2
2023-01-19T17:39:23.324Z,16.1
2023-01-19T17:41:25.240Z,14.9
2023-01-19T17:44:29.736Z,9.6
2023-01-19T17:46:31.617Z,17.4
2023-01-19T17:50:38.691Z,10.2
2023-01-19T17:52:40.575Z,15.3
2023-01-19T17:54:42.519Z,16
2023-01-19T18:00:48.187Z,12.6
2023-01-19T18:02:50.238Z,20.9
2023-01-19T18:04:55.202Z,17.9
2023-01-19T18:06:57.087Z,17.1
2023-01-19T18:08:59.013Z,18.4
2023-01-19T18:11:00.848Z,16
2023-01-19T18:19:11.590Z,23.1
2023-01-19T18:21:13.542Z,25.1
2023-01-19T18:27:19.111Z,29.6
2023-01-19T18:33:27.942Z,33.5
2023-01-19T18:35:29.826Z,29.3
2023-01-19T18:37:31.727Z,37
2023-01-19T18:40:00.529Z,48.1
2023-01-19T18:42:02.414Z,36
2023-01-19T18:48:12.777Z,40.4
2023-01-19T18:50:14.978Z,44.5
2023-01-19T18:52:16.518Z,46.6
2023-01-19T18:54:18.392Z,59.3
2023-01-19T18:56:20.230Z,53.8
2023-01-19T18:58:22.086Z,42.3
2023-01-19T19:00:27.183Z,62.1
2023-01-19T19:02:29.043Z,60.9
2023-01-19T19:04:30.936Z,66.9
2023-01-19T19:06:32.780Z,56.5
2023-01-19T19:08:34.664Z,62.5
2023-01-19T19:10:36.521Z,57.8
2023-01-19T19:12:38.367Z,61.8
2023-01-19T19:14:43.497Z,59.1
2023-01-19T19:16:45.335Z,63.7
2023-01-19T19:18:47.206Z,71.8
2023-01-19T19:20:49.071Z,63.8
2023-01-19T19:22:50.918Z,85.8
2023-01-19T19:24:52.800Z,64.6
2023-01-19T19:26:54.694Z,66.3
2023-01-19T19:28:59.765Z,71.7
2023-01-19T19:31:01.742Z,74.3
2023-01-19T19:33:03.469Z,75
2023-01-19T19:34:06.032Z,76.2
2023-01-19T19:36:07.901Z,63.4
2023-01-19T19:38:09.744Z,73.6
2023-01-19T19:40:11.896Z,81.3
2023-01-19T19:44:18.553Z,83.2
2023-01-19T19:46:20.479Z,84.2
2023-01-19T19:48:22.287Z,89.2
2023-01-19T19:52:25.995Z,79.2
2023-01-19T19:54:27.860Z,90.8
2023-01-19T19:56:32.958Z,85.3
2023-01-19T20:02:38.578Z,86.4
2023-01-19T20:04:40.456Z,81.6
2023-01-19T20:06:42.289Z,67.1
2023-01-19T20:10:49.242Z,55.4
2023-01-19T20:12:51.133Z,73.5
2023-01-19T20:14:52.997Z,70.7
2023-01-19T20:16:54.846Z,61.4
2023-01-19T20:18:56.725Z,73.7
2023-01-19T20:20:58.571Z,55.5
2023-01-19T20:23:00.448Z,47.6
2023-01-19T20:25:05.553Z,64
2023-01-19T20:29:09.319Z,70.1
2023-01-19T20:36:17.487Z,47.8
2023-01-19T20:38:22.614Z,55
2023-01-19T20:40:24.503Z,54.1
2023-01-19T20:42:26.352Z,64.1
2023-01-19T20:44:28.285Z,62.3
2023-01-19T20:46:30.107Z,52.9
2023-01-19T20:50:33.851Z,44.3
2023-01-19T20:52:38.976Z,48.6
2023-01-19T20:54:40.850Z,51.2
2023-01-19T20:56:42.760Z,62.6
2023-01-19T21:02:48.414Z,55.3
2023-01-19T21:10:59.116Z,45
2023-01-19T21:13:01.016Z,53.2
2023-01-19T21:15:02.870Z,41.9
2023-01-19T21:19:06.647Z,51.3
2023-01-19T21:21:28.425Z,40
2023-01-19T21:23:13.631Z,56.9
2023-01-19T21:25:15.542Z,53.9
2023-01-19T21:26:18.090Z,46.5
2023-01-19T21:28:19.967Z,40.9
2023-01-19T21:30:21.910Z,43.9
2023-01-19T21:32:23.739Z,49.3
2023-01-19T21:36:30.790Z,50.1
2023-01-19T21:40:34.551Z,44.3
2023-01-19T21:42:36.429Z,43.8
2023-01-19T21:44:38.305Z,48.4
2023-01-19T21:46:40.192Z,49.9
2023-01-19T21:48:45.319Z,56
2023-01-19T21:50:47.199Z,40.9
2023-01-19T21:52:49.113Z,37.2
2023-01-19T21:54:50.965Z,45.8
2023-01-19T21:56:52.833Z,43.3
2023-01-19T21:58:54.729Z,45.1
2023-01-19T22:00:56.627Z,45.8
2023-01-19T22:03:04.421Z,40.7
2023-01-19T22:05:03.589Z,46.4
2023-01-19T22:07:05.450Z,48.7
2023-01-19T22:09:07.364Z,49.4
2023-01-19T22:13:11.097Z,48.2
2023-01-19T22:15:13.251Z,50.2
2023-01-19T22:19:19.922Z,37.4
2023-01-19T22:21:21.805Z,39.7
2023-01-19T22:23:50.593Z,36.1
2023-01-19T22:25:52.461Z,48.7
2023-01-19T22:27:54.335Z,42.1
2023-01-19T22:29:59.433Z,42.7
2023-01-19T22:32:01.309Z,61.2
2023-01-19T22:34:03.217Z,49.6
2023-01-19T22:36:05.087Z,46.3
2023-01-19T22:42:10.692Z,35.1
2023-01-19T22:48:19.561Z,37.4
2023-01-19T22:50:21.423Z,37.5
2023-01-19T22:52:23.295Z,27.1
2023-01-19T22:54:25.156Z,30.8
2023-01-19T22:56:27.008Z,32.8
2023-01-19T23:00:34.144Z,39.3
2023-01-19T23:02:35.865Z,29.4
2023-01-19T23:04:37.724Z,36.5
2023-01-19T23:06:39.609Z,41.1
2023-01-19T23:08:41.472Z,36.6
2023-01-19T23:10:43.336Z,37
2023-01-19T23:12:48.455Z,35.4
2023-01-19T23:14:50.328Z,36.3
2023-01-19T23:16:52.201Z,42.1
2023-01-19T23:17:54.774Z,28.9
2023-01-19T23:19:56.645Z,40
2023-01-19T23:21:58.518Z,41.3
2023-01-19T23:24:00.402Z,24.7
2023-01-19T23:26:05.508Z,33.7
2023-01-19T23:30:09.241Z,23.1
2023-01-19T23:36:14.873Z,23.7
2023-01-19T23:38:16.734Z,34.4
2023-01-19T23:42:23.752Z,28.7
2023-01-19T23:44:25.596Z,20
2023-01-19T23:46:27.743Z,20.6
2023-01-19T23:48:29.362Z,24.2
2023-01-19T23:50:31.246Z,20.2
2023-01-19T23:52:33.122Z,19.2
2023-01-19T23:54:38.212Z,20
2023-01-19T23:56:40.228Z,19.3
2023-01-19T23:58:41.976Z,18.5
